sensor_id;sensor_type;location;lat;lon;timestamp;P1;durP1;ratioP1;P2;durP2;ratioP2
63534;SDS011;55128;50.230;18.944;2023-06-10T00:02:22;22.83;;;20.67;;
63534;SDS011;55128;50.230;18.944;2023-06-10T00:07:22;22.67;;;20.47;;
63534;SDS011;55128;50.230;18.944;2023-06-10T00:12:23;23.37;;;21.10;;
63534;SDS011;55128;50.230;18.944;2023-06-10T00:17:23;22.93;;;20.87;;
63534;SDS011;55128;50.230;18.944;2023-06-10T00:22:24;22.08;;;20.02;;
63534;SDS011;55128;50.230;18.944;2023-06-10T00:27:29;22.05;;;20.02;;
63534;SDS011;55128;50.230;18.944;2023-06-10T00:32:35;20.83;;;18.92;;
63534;SDS011;55128;50.230;18.944;2023-06-10T00:37:36;25.02;;;22.52;;
63534;SDS011;55128;50.230;18.944;2023-06-10T00:42:36;23.02;;;20.75;;
63534;SDS011;55128;50.230;18.944;2023-06-10T00:47:37;22.08;;;19.90;;
63534;SDS011;55128;50.230;18.944;2023-06-10T00:52:37;23.17;;;21.02;;
63534;SDS011;55128;50.230;18.944;2023-06-10T00:57:37;21.77;;;19.77;;
63534;SDS011;55128;50.230;18.944;2023-06-10T01:02:38;23.13;;;20.83;;
63534;SDS011;55128;50.230;18.944;2023-06-10T01:08:23;22.67;;;20.47;;
63534;SDS011;55128;50.230;18.944;2023-06-10T01:13:07;20.63;;;18.73;;
63534;SDS011;55128;50.230;18.944;2023-06-10T01:18:11;22.05;;;20.08;;
63534;SDS011;55128;50.230;18.944;2023-06-10T01:23:17;21.25;;;19.25;;
63534;SDS011;55128;50.230;18.944;2023-06-10T01:28:29;21.17;;;19.07;;
63534;SDS011;55128;50.230;18.944;2023-06-10T01:33:35;20.85;;;18.85;;
63534;SDS011;55128;50.230;18.944;2023-06-10T01:43:44;20.20;;;18.40;;
63534;SDS011;55128;50.230;18.944;2023-06-10T01:48:45;21.45;;;19.55;;
63534;SDS011;55128;50.230;18.944;2023-06-10T01:53:45;21.48;;;19.40;;
63534;SDS011;55128;50.230;18.944;2023-06-10T01:58:46;21.30;;;19.30;;
63534;SDS011;55128;50.230;18.944;2023-06-10T02:03:46;21.88;;;19.60;;
63534;SDS011;55128;50.230;18.944;2023-06-10T02:08:47;21.60;;;19.60;;
63534;SDS011;55128;50.230;18.944;2023-06-10T02:13:47;21.85;;;19.73;;
63534;SDS011;55128;50.230;18.944;2023-06-10T02:18:47;21.85;;;19.85;;
63534;SDS011;55128;50.230;18.944;2023-06-10T02:23:48;21.30;;;19.33;;
63534;SDS011;55128;50.230;18.944;2023-06-10T02:28:49;21.43;;;19.30;;
63534;SDS011;55128;50.230;18.944;2023-06-10T02:33:49;21.92;;;19.95;;
63534;SDS011;55128;50.230;18.944;2023-06-10T02:38:49;21.55;;;19.65;;
63534;SDS011;55128;50.230;18.944;2023-06-10T02:43:50;22.67;;;20.65;;
63534;SDS011;55128;50.230;18.944;2023-06-10T02:48:50;22.65;;;20.45;;
63534;SDS011;55128;50.230;18.944;2023-06-10T02:53:51;22.48;;;20.38;;
63534;SDS011;55128;50.230;18.944;2023-06-10T02:58:52;21.70;;;19.73;;
63534;SDS011;55128;50.230;18.944;2023-06-10T03:03:53;21.20;;;19.33;;
63534;SDS011;55128;50.230;18.944;2023-06-10T03:08:53;22.13;;;20.13;;
63534;SDS011;55128;50.230;18.944;2023-06-10T03:13:53;19.57;;;17.70;;
63534;SDS011;55128;50.230;18.944;2023-06-10T03:18:54;21.20;;;19.10;;
63534;SDS011;55128;50.230;18.944;2023-06-10T03:23:54;22.63;;;20.63;;
63534;SDS011;55128;50.230;18.944;2023-06-10T03:28:55;23.35;;;21.08;;
63534;SDS011;55128;50.230;18.944;2023-06-10T03:33:55;21.65;;;19.80;;
63534;SDS011;55128;50.230;18.944;2023-06-10T03:38:55;22.57;;;20.57;;
63534;SDS011;55128;50.230;18.944;2023-06-10T03:43:56;23.23;;;21.23;;
63534;SDS011;55128;50.230;18.944;2023-06-10T03:48:57;26.47;;;23.93;;
63534;SDS011;55128;50.230;18.944;2023-06-10T03:54:00;28.00;;;25.43;;
63534;SDS011;55128;50.230;18.944;2023-06-10T03:59:00;28.50;;;25.90;;
63534;SDS011;55128;50.230;18.944;2023-06-10T04:04:01;26.75;;;24.15;;
63534;SDS011;55128;50.230;18.944;2023-06-10T04:09:02;25.25;;;22.80;;
63534;SDS011;55128;50.230;18.944;2023-06-10T04:14:03;24.85;;;22.23;;
63534;SDS011;55128;50.230;18.944;2023-06-10T04:19:03;24.63;;;22.13;;
63534;SDS011;55128;50.230;18.944;2023-06-10T04:24:04;25.23;;;22.77;;
63534;SDS011;55128;50.230;18.944;2023-06-10T04:29:04;25.08;;;22.63;;
63534;SDS011;55128;50.230;18.944;2023-06-10T04:34:04;24.65;;;22.05;;
63534;SDS011;55128;50.230;18.944;2023-06-10T04:39:05;24.77;;;20.35;;
63534;SDS011;55128;50.230;18.944;2023-06-10T04:44:05;22.73;;;20.73;;
63534;SDS011;55128;50.230;18.944;2023-06-10T04:49:06;21.80;;;19.70;;
63534;SDS011;55128;50.230;18.944;2023-06-10T04:54:06;22.80;;;20.70;;
63534;SDS011;55128;50.230;18.944;2023-06-10T04:59:06;23.10;;;20.90;;
63534;SDS011;55128;50.230;18.944;2023-06-10T05:04:07;21.47;;;19.43;;
63534;SDS011;55128;50.230;18.944;2023-06-10T05:09:07;21.23;;;19.33;;
63534;SDS011;55128;50.230;18.944;2023-06-10T05:14:07;20.27;;;18.40;;
63534;SDS011;55128;50.230;18.944;2023-06-10T05:19:08;21.23;;;19.23;;
63534;SDS011;55128;50.230;18.944;2023-06-10T05:24:08;21.05;;;18.90;;
63534;SDS011;55128;50.230;18.944;2023-06-10T05:29:09;20.03;;;17.87;;
63534;SDS011;55128;50.230;18.944;2023-06-10T05:34:09;19.03;;;16.33;;
63534;SDS011;55128;50.230;18.944;2023-06-10T05:39:09;15.97;;;14.30;;
63534;SDS011;55128;50.230;18.944;2023-06-10T05:44:10;16.58;;;15.07;;
63534;SDS011;55128;50.230;18.944;2023-06-10T05:49:10;17.23;;;14.50;;
63534;SDS011;55128;50.230;18.944;2023-06-10T05:54:11;17.37;;;12.97;;
63534;SDS011;55128;50.230;18.944;2023-06-10T05:59:11;14.07;;;12.67;;
63534;SDS011;55128;50.230;18.944;2023-06-10T06:04:11;13.52;;;12.23;;
63534;SDS011;55128;50.230;18.944;2023-06-10T06:09:12;13.40;;;10.90;;
63534;SDS011;55128;50.230;18.944;2023-06-10T06:14:13;13.20;;;12.10;;
63534;SDS011;55128;50.230;18.944;2023-06-10T06:19:13;12.33;;;11.13;;
63534;SDS011;55128;50.230;18.944;2023-06-10T06:24:15;12.85;;;11.65;;
63534;SDS011;55128;50.230;18.944;2023-06-10T06:29:15;13.38;;;12.13;;
63534;SDS011;55128;50.230;18.944;2023-06-10T06:34:16;12.90;;;10.87;;
63534;SDS011;55128;50.230;18.944;2023-06-10T06:39:16;23.17;;;14.63;;
63534;SDS011;55128;50.230;18.944;2023-06-10T06:44:17;25.73;;;23.13;;
63534;SDS011;55128;50.230;18.944;2023-06-10T06:49:17;26.15;;;23.23;;
63534;SDS011;55128;50.230;18.944;2023-06-10T06:54:17;30.93;;;27.83;;
63534;SDS011;55128;50.230;18.944;2023-06-10T06:59:18;33.97;;;29.77;;
63534;SDS011;55128;50.230;18.944;2023-06-10T07:04:19;33.78;;;30.38;;
63534;SDS011;55128;50.230;18.944;2023-06-10T07:09:21;30.95;;;27.83;;
63534;SDS011;55128;50.230;18.944;2023-06-10T07:14:21;31.58;;;28.48;;
63534;SDS011;55128;50.230;18.944;2023-06-10T07:19:22;29.27;;;26.40;;
63534;SDS011;55128;50.230;18.944;2023-06-10T07:24:22;27.67;;;25.13;;
63534;SDS011;55128;50.230;18.944;2023-06-10T07:29:23;27.92;;;25.27;;
63534;SDS011;55128;50.230;18.944;2023-06-10T07:34:23;25.88;;;23.67;;
63534;SDS011;55128;50.230;18.944;2023-06-10T07:39:23;22.58;;;20.58;;
63534;SDS011;55128;50.230;18.944;2023-06-10T07:44:24;28.35;;;25.63;;
63534;SDS011;55128;50.230;18.944;2023-06-10T07:49:24;24.20;;;21.90;;
63534;SDS011;55128;50.230;18.944;2023-06-10T07:54:25;26.35;;;24.08;;
63534;SDS011;55128;50.230;18.944;2023-06-10T07:59:25;21.38;;;19.48;;
63534;SDS011;55128;50.230;18.944;2023-06-10T08:04:26;19.27;;;17.52;;
63534;SDS011;55128;50.230;18.944;2023-06-10T08:09:26;21.63;;;19.83;;
63534;SDS011;55128;50.230;18.944;2023-06-10T08:14:27;17.93;;;16.37;;
63534;SDS011;55128;50.230;18.944;2023-06-10T08:19:27;16.03;;;14.53;;
63534;SDS011;55128;50.230;18.944;2023-06-10T08:24:27;14.77;;;13.37;;
63534;SDS011;55128;50.230;18.944;2023-06-10T08:29:28;13.70;;;12.50;;
63534;SDS011;55128;50.230;18.944;2023-06-10T08:34:29;15.05;;;13.55;;
63534;SDS011;55128;50.230;18.944;2023-06-10T08:39:29;12.37;;;11.27;;
63534;SDS011;55128;50.230;18.944;2023-06-10T08:44:32;11.80;;;10.80;;
63534;SDS011;55128;50.230;18.944;2023-06-10T08:49:38;10.65;;;9.65;;
63534;SDS011;55128;50.230;18.944;2023-06-10T08:54:54;11.18;;;10.10;;
63534;SDS011;55128;50.230;18.944;2023-06-10T08:59:57;9.75;;;8.85;;
63534;SDS011;55128;50.230;18.944;2023-06-10T09:04:58;10.35;;;7.93;;
63534;SDS011;55128;50.230;18.944;2023-06-10T09:09:59;9.07;;;8.18;;
63534;SDS011;55128;50.230;18.944;2023-06-10T09:15:03;9.30;;;8.00;;
63534;SDS011;55128;50.230;18.944;2023-06-10T09:20:04;10.25;;;8.25;;
63534;SDS011;55128;50.230;18.944;2023-06-10T09:25:05;9.02;;;7.85;;
63534;SDS011;55128;50.230;18.944;2023-06-10T09:30:11;8.10;;;7.30;;
63534;SDS011;55128;50.230;18.944;2023-06-10T09:35:29;9.70;;;7.82;;
63534;SDS011;55128;50.230;18.944;2023-06-10T09:40:30;9.70;;;8.43;;
63534;SDS011;55128;50.230;18.944;2023-06-10T09:45:31;9.65;;;8.55;;
63534;SDS011;55128;50.230;18.944;2023-06-10T09:50:41;11.70;;;8.60;;
63534;SDS011;55128;50.230;18.944;2023-06-10T09:55:43;9.10;;;8.00;;
63534;SDS011;55128;50.230;18.944;2023-06-10T10:00:44;9.25;;;8.35;;
63534;SDS011;55128;50.230;18.944;2023-06-10T10:05:57;8.25;;;7.45;;
63534;SDS011;55128;50.230;18.944;2023-06-10T10:10:59;8.20;;;7.47;;
63534;SDS011;55128;50.230;18.944;2023-06-10T10:16:04;7.70;;;6.15;;
63534;SDS011;55128;50.230;18.944;2023-06-10T10:21:13;6.78;;;5.25;;
63534;SDS011;55128;50.230;18.944;2023-06-10T10:26:15;5.90;;;5.10;;
63534;SDS011;55128;50.230;18.944;2023-06-10T10:31:18;6.43;;;5.17;;
63534;SDS011;55128;50.230;18.944;2023-06-10T10:36:20;5.60;;;5.10;;
63534;SDS011;55128;50.230;18.944;2023-06-10T10:41:21;6.72;;;4.88;;
63534;SDS011;55128;50.230;18.944;2023-06-10T10:46:23;5.07;;;4.63;;
63534;SDS011;55128;50.230;18.944;2023-06-10T10:51:58;5.32;;;4.50;;
63534;SDS011;55128;50.230;18.944;2023-06-10T10:57:13;5.55;;;4.57;;
63534;SDS011;55128;50.230;18.944;2023-06-10T11:02:16;6.60;;;4.60;;
63534;SDS011;55128;50.230;18.944;2023-06-10T11:07:21;5.70;;;4.97;;
63534;SDS011;55128;50.230;18.944;2023-06-10T11:12:23;9.95;;;4.75;;
63534;SDS011;55128;50.230;18.944;2023-06-10T11:17:24;7.38;;;5.15;;
63534;SDS011;55128;50.230;18.944;2023-06-10T11:22:24;10.90;;;4.70;;
63534;SDS011;55128;50.230;18.944;2023-06-10T11:27:25;5.40;;;4.90;;
63534;SDS011;55128;50.230;18.944;2023-06-10T11:32:28;5.57;;;4.78;;
63534;SDS011;55128;50.230;18.944;2023-06-10T11:37:33;6.03;;;4.82;;
63534;SDS011;55128;50.230;18.944;2023-06-10T11:42:33;6.50;;;5.20;;
63534;SDS011;55128;50.230;18.944;2023-06-10T11:47:39;5.82;;;5.00;;
63534;SDS011;55128;50.230;18.944;2023-06-10T11:52:40;6.07;;;5.00;;
63534;SDS011;55128;50.230;18.944;2023-06-10T11:57:41;6.00;;;5.40;;
63534;SDS011;55128;50.230;18.944;2023-06-10T12:02:41;6.90;;;5.50;;
63534;SDS011;55128;50.230;18.944;2023-06-10T12:07:42;6.43;;;5.80;;
63534;SDS011;55128;50.230;18.944;2023-06-10T12:12:42;6.78;;;5.45;;
63534;SDS011;55128;50.230;18.944;2023-06-10T12:17:43;5.93;;;5.40;;
63534;SDS011;55128;50.230;18.944;2023-06-10T12:22:43;6.43;;;5.78;;
63534;SDS011;55128;50.230;18.944;2023-06-10T12:27:51;6.65;;;5.18;;
63534;SDS011;55128;50.230;18.944;2023-06-10T12:32:55;7.75;;;5.47;;
63534;SDS011;55128;50.230;18.944;2023-06-10T12:38:00;7.07;;;5.30;;
63534;SDS011;55128;50.230;18.944;2023-06-10T12:43:03;11.77;;;5.68;;
63534;SDS011;55128;50.230;18.944;2023-06-10T12:48:06;8.05;;;5.97;;
63534;SDS011;55128;50.230;18.944;2023-06-10T12:53:11;6.63;;;5.70;;
63534;SDS011;55128;50.230;18.944;2023-06-10T12:58:11;5.93;;;5.32;;
63534;SDS011;55128;50.230;18.944;2023-06-10T13:03:12;5.63;;;5.03;;
63534;SDS011;55128;50.230;18.944;2023-06-10T13:08:12;7.40;;;5.20;;
63534;SDS011;55128;50.230;18.944;2023-06-10T13:13:13;6.00;;;5.03;;
63534;SDS011;55128;50.230;18.944;2023-06-10T13:18:14;8.48;;;4.82;;
63534;SDS011;55128;50.230;18.944;2023-06-10T13:23:14;7.60;;;5.13;;
63534;SDS011;55128;50.230;18.944;2023-06-10T13:28:15;7.35;;;5.40;;
63534;SDS011;55128;50.230;18.944;2023-06-10T13:33:15;6.00;;;5.43;;
63534;SDS011;55128;50.230;18.944;2023-06-10T13:38:16;6.70;;;5.68;;
63534;SDS011;55128;50.230;18.944;2023-06-10T13:43:16;6.00;;;5.40;;
63534;SDS011;55128;50.230;18.944;2023-06-10T13:48:17;7.35;;;6.00;;
63534;SDS011;55128;50.230;18.944;2023-06-10T13:53:18;6.88;;;6.07;;
63534;SDS011;55128;50.230;18.944;2023-06-10T13:58:18;5.87;;;5.37;;
63534;SDS011;55128;50.230;18.944;2023-06-10T14:03:18;5.63;;;5.13;;
63534;SDS011;55128;50.230;18.944;2023-06-10T14:08:19;6.30;;;5.68;;
63534;SDS011;55128;50.230;18.944;2023-06-10T14:13:20;6.35;;;5.40;;
63534;SDS011;55128;50.230;18.944;2023-06-10T14:18:21;6.53;;;5.90;;
63534;SDS011;55128;50.230;18.944;2023-06-10T14:23:21;6.03;;;5.35;;
63534;SDS011;55128;50.230;18.944;2023-06-10T14:28:21;6.53;;;5.93;;
63534;SDS011;55128;50.230;18.944;2023-06-10T14:33:23;5.80;;;4.50;;
63534;SDS011;55128;50.230;18.944;2023-06-10T14:38:25;4.00;;;3.00;;
63534;SDS011;55128;50.230;18.944;2023-06-10T14:43:26;14.05;;;3.78;;
63534;SDS011;55128;50.230;18.944;2023-06-10T14:48:26;6.57;;;3.90;;
63534;SDS011;55128;50.230;18.944;2023-06-10T14:53:26;7.03;;;3.43;;
63534;SDS011;55128;50.230;18.944;2023-06-10T14:58:27;5.10;;;4.10;;
63534;SDS011;55128;50.230;18.944;2023-06-10T15:03:27;5.30;;;4.80;;
63534;SDS011;55128;50.230;18.944;2023-06-10T15:08:27;6.53;;;5.47;;
63534;SDS011;55128;50.230;18.944;2023-06-10T15:13:28;6.88;;;5.38;;
63534;SDS011;55128;50.230;18.944;2023-06-10T15:18:29;8.52;;;7.45;;
63534;SDS011;55128;50.230;18.944;2023-06-10T15:23:32;8.13;;;7.32;;
63534;SDS011;55128;50.230;18.944;2023-06-10T15:28:33;8.57;;;7.60;;
63534;SDS011;55128;50.230;18.944;2023-06-10T15:33:33;9.57;;;8.77;;
63534;SDS011;55128;50.230;18.944;2023-06-10T15:38:33;9.10;;;8.20;;
63534;SDS011;55128;50.230;18.944;2023-06-10T15:43:34;10.00;;;9.00;;
63534;SDS011;55128;50.230;18.944;2023-06-10T15:48:35;10.10;;;9.18;;
63534;SDS011;55128;50.230;18.944;2023-06-10T15:53:38;10.70;;;9.13;;
63534;SDS011;55128;50.230;18.944;2023-06-10T15:58:39;9.93;;;9.02;;
63534;SDS011;55128;50.230;18.944;2023-06-10T16:03:40;10.85;;;9.15;;
63534;SDS011;55128;50.230;18.944;2023-06-10T16:08:43;10.60;;;9.68;;
63534;SDS011;55128;50.230;18.944;2023-06-10T16:13:43;9.85;;;8.85;;
63534;SDS011;55128;50.230;18.944;2023-06-10T16:18:44;10.63;;;8.88;;
63534;SDS011;55128;50.230;18.944;2023-06-10T16:23:45;10.52;;;9.43;;
63534;SDS011;55128;50.230;18.944;2023-06-10T16:28:45;9.37;;;8.47;;
63534;SDS011;55128;50.230;18.944;2023-06-10T16:33:45;10.27;;;9.13;;
63534;SDS011;55128;50.230;18.944;2023-06-10T16:38:47;9.15;;;8.35;;
63534;SDS011;55128;50.230;18.944;2023-06-10T16:43:47;9.40;;;8.43;;
63534;SDS011;55128;50.230;18.944;2023-06-10T16:48:48;10.25;;;9.02;;
63534;SDS011;55128;50.230;18.944;2023-06-10T16:53:48;9.43;;;8.48;;
63534;SDS011;55128;50.230;18.944;2023-06-10T16:58:48;13.65;;;8.63;;
63534;SDS011;55128;50.230;18.944;2023-06-10T17:03:49;10.10;;;8.50;;
63534;SDS011;55128;50.230;18.944;2023-06-10T17:08:49;11.48;;;7.90;;
63534;SDS011;55128;50.230;18.944;2023-06-10T17:13:49;8.37;;;6.57;;
63534;SDS011;55128;50.230;18.944;2023-06-10T17:18:50;8.65;;;7.68;;
63534;SDS011;55128;50.230;18.944;2023-06-10T17:23:50;10.40;;;6.57;;
63534;SDS011;55128;50.230;18.944;2023-06-10T17:28:51;8.45;;;5.93;;
63534;SDS011;55128;50.230;18.944;2023-06-10T17:33:51;5.40;;;4.90;;
63534;SDS011;55128;50.230;18.944;2023-06-10T17:38:52;4.63;;;4.13;;
63534;SDS011;55128;50.230;18.944;2023-06-10T17:43:52;7.17;;;5.00;;
63534;SDS011;55128;50.230;18.944;2023-06-10T17:48:52;5.77;;;3.90;;
63534;SDS011;55128;50.230;18.944;2023-06-10T17:53:53;9.32;;;4.45;;
63534;SDS011;55128;50.230;18.944;2023-06-10T17:58:54;9.00;;;4.00;;
63534;SDS011;55128;50.230;18.944;2023-06-10T18:03:54;5.22;;;3.63;;
63534;SDS011;55128;50.230;18.944;2023-06-10T18:08:55;6.22;;;4.30;;
63534;SDS011;55128;50.230;18.944;2023-06-10T18:13:55;6.38;;;3.90;;
63534;SDS011;55128;50.230;18.944;2023-06-10T18:18:55;4.60;;;4.20;;
63534;SDS011;55128;50.230;18.944;2023-06-10T18:23:56;4.10;;;3.53;;
63534;SDS011;55128;50.230;18.944;2023-06-10T18:28:57;5.30;;;4.55;;
63534;SDS011;55128;50.230;18.944;2023-06-10T18:33:57;5.63;;;4.40;;
63534;SDS011;55128;50.230;18.944;2023-06-10T18:38:58;5.75;;;4.28;;
63534;SDS011;55128;50.230;18.944;2023-06-10T18:43:58;6.00;;;3.80;;
63534;SDS011;55128;50.230;18.944;2023-06-10T18:49:00;4.68;;;4.00;;
63534;SDS011;55128;50.230;18.944;2023-06-10T18:54:01;6.10;;;4.23;;
63534;SDS011;55128;50.230;18.944;2023-06-10T18:59:02;6.68;;;3.92;;
63534;SDS011;55128;50.230;18.944;2023-06-10T19:04:03;5.67;;;4.13;;
63534;SDS011;55128;50.230;18.944;2023-06-10T19:09:03;7.75;;;4.40;;
63534;SDS011;55128;50.230;18.944;2023-06-10T19:14:04;5.53;;;4.82;;
63534;SDS011;55128;50.230;18.944;2023-06-10T19:19:06;7.55;;;4.57;;
63534;SDS011;55128;50.230;18.944;2023-06-10T19:24:07;4.95;;;4.50;;
63534;SDS011;55128;50.230;18.944;2023-06-10T19:29:09;7.93;;;4.60;;
63534;SDS011;55128;50.230;18.944;2023-06-10T19:34:09;6.25;;;4.63;;
63534;SDS011;55128;50.230;18.944;2023-06-10T19:39:11;7.40;;;4.82;;
63534;SDS011;55128;50.230;18.944;2023-06-10T19:44:12;7.43;;;4.88;;
63534;SDS011;55128;50.230;18.944;2023-06-10T19:49:12;5.88;;;4.80;;
63534;SDS011;55128;50.230;18.944;2023-06-10T19:54:13;5.55;;;4.60;;
63534;SDS011;55128;50.230;18.944;2023-06-10T19:59:13;7.50;;;4.82;;
63534;SDS011;55128;50.230;18.944;2023-06-10T20:04:14;8.05;;;5.18;;
63534;SDS011;55128;50.230;18.944;2023-06-10T20:09:14;6.27;;;5.40;;
63534;SDS011;55128;50.230;18.944;2023-06-10T20:14:15;6.15;;;5.40;;
63534;SDS011;55128;50.230;18.944;2023-06-10T20:19:15;7.00;;;5.07;;
63534;SDS011;55128;50.230;18.944;2023-06-10T20:24:15;8.53;;;5.23;;
63534;SDS011;55128;50.230;18.944;2023-06-10T20:29:16;6.77;;;5.47;;
63534;SDS011;55128;50.230;18.944;2023-06-10T20:34:17;6.40;;;5.63;;
63534;SDS011;55128;50.230;18.944;2023-06-10T20:39:17;6.93;;;6.05;;
63534;SDS011;55128;50.230;18.944;2023-06-10T20:44:18;10.15;;;6.38;;
63534;SDS011;55128;50.230;18.944;2023-06-10T20:49:18;5.80;;;5.30;;
63534;SDS011;55128;50.230;18.944;2023-06-10T20:54:18;9.18;;;6.40;;
63534;SDS011;55128;50.230;18.944;2023-06-10T20:59:19;7.50;;;6.03;;
63534;SDS011;55128;50.230;18.944;2023-06-10T21:04:20;7.90;;;6.70;;
63534;SDS011;55128;50.230;18.944;2023-06-10T21:09:20;7.73;;;6.57;;
63534;SDS011;55128;50.230;18.944;2023-06-10T21:14:20;7.13;;;6.40;;
63534;SDS011;55128;50.230;18.944;2023-06-10T21:19:21;7.97;;;7.17;;
63534;SDS011;55128;50.230;18.944;2023-06-10T21:24:21;8.17;;;7.37;;
63534;SDS011;55128;50.230;18.944;2023-06-10T21:29:22;9.00;;;6.93;;
63534;SDS011;55128;50.230;18.944;2023-06-10T21:34:22;7.35;;;6.65;;
63534;SDS011;55128;50.230;18.944;2023-06-10T21:39:23;7.87;;;7.10;;
63534;SDS011;55128;50.230;18.944;2023-06-10T21:44:24;7.97;;;7.23;;
63534;SDS011;55128;50.230;18.944;2023-06-10T21:49:24;7.63;;;6.90;;
63534;SDS011;55128;50.230;18.944;2023-06-10T21:54:25;7.83;;;7.10;;
63534;SDS011;55128;50.230;18.944;2023-06-10T21:59:25;8.30;;;7.50;;
63534;SDS011;55128;50.230;18.944;2023-06-10T22:04:26;8.05;;;7.35;;
63534;SDS011;55128;50.230;18.944;2023-06-10T22:09:26;9.82;;;7.65;;
63534;SDS011;55128;50.230;18.944;2023-06-10T22:14:26;8.05;;;7.32;;
63534;SDS011;55128;50.230;18.944;2023-06-10T22:19:27;8.10;;;7.25;;
63534;SDS011;55128;50.230;18.944;2023-06-10T22:24:27;9.47;;;7.57;;
63534;SDS011;55128;50.230;18.944;2023-06-10T22:29:27;9.37;;;8.00;;
63534;SDS011;55128;50.230;18.944;2023-06-10T22:34:28;9.25;;;7.63;;
63534;SDS011;55128;50.230;18.944;2023-06-10T22:39:29;8.30;;;7.43;;
63534;SDS011;55128;50.230;18.944;2023-06-10T22:44:29;8.77;;;7.78;;
63534;SDS011;55128;50.230;18.944;2023-06-10T22:49:29;10.07;;;9.07;;
63534;SDS011;55128;50.230;18.944;2023-06-10T22:54:30;9.77;;;8.77;;
63534;SDS011;55128;50.230;18.944;2023-06-10T22:59:30;10.07;;;9.07;;
63534;SDS011;55128;50.230;18.944;2023-06-10T23:04:30;10.52;;;9.00;;
63534;SDS011;55128;50.230;18.944;2023-06-10T23:09:31;11.45;;;9.38;;
63534;SDS011;55128;50.230;18.944;2023-06-10T23:14:31;10.10;;;9.10;;
63534;SDS011;55128;50.230;18.944;2023-06-10T23:19:31;9.70;;;8.80;;
63534;SDS011;55128;50.230;18.944;2023-06-10T23:24:33;10.70;;;8.32;;
63534;SDS011;55128;50.230;18.944;2023-06-10T23:29:34;9.65;;;8.73;;
63534;SDS011;55128;50.230;18.944;2023-06-10T23:34:35;9.75;;;8.85;;
63534;SDS011;55128;50.230;18.944;2023-06-10T23:39:35;9.55;;;8.75;;
63534;SDS011;55128;50.230;18.944;2023-06-10T23:44:35;9.07;;;8.17;;
63534;SDS011;55128;50.230;18.944;2023-06-10T23:49:36;8.60;;;7.80;;
63534;SDS011;55128;50.230;18.944;2023-06-10T23:54:36;10.13;;;7.90;;
63534;SDS011;55128;50.230;18.944;2023-06-10T23:59:37;8.40;;;7.60;;
